Providence, Rhode Island
Traffic Map
Current Weather Conditions
Providence, Rhode Island
Broken Clouds
Broken Clouds
-7°
Feels Like: -16°
Wind Chill: -16° Ceiling: 9500
Heat Index: -7° Visibility: 10mi
Dew Point: -20° Wind: 25mph
Humidity: 35% Direction: 290° (WNW)
Pressure: 29.89in Gusts: 35mph
Raw Report DataKPVD 131851Z 29022G30KT 10SM SCT065 BKN095 M07/M20 A2989 RMK AO2 PK WND 26031/1833 SLP124 VIRGA SW-NW T10671200 $
Traffic Incident Summary
Active as of:
Severity:
Category:
InformationThere was an issue retrieving the traffic information for this location. Please try a different location or try again shortly.
Advertisements
Track Severe Weather on mobile